createdAt,value
2018-07-08T00:01:41.199Z,10.53
2018-07-08T00:04:10.116Z,6.40
2018-07-08T00:06:38.947Z,9.97
2018-07-08T00:09:07.739Z,6.53
2018-07-08T00:11:36.378Z,5.27
2018-07-08T00:14:05.134Z,8.70
2018-07-08T00:16:33.993Z,6.43
2018-07-08T00:19:02.928Z,10.90
2018-07-08T00:21:31.803Z,7.97
2018-07-08T00:24:00.674Z,9.80
2018-07-08T00:26:29.576Z,12.67
2018-07-08T00:28:58.427Z,7.53
2018-07-08T00:31:27.219Z,7.50
2018-07-08T00:33:56.066Z,7.47
2018-07-08T00:36:24.927Z,6.93
2018-07-08T00:38:53.837Z,9.27
2018-07-08T00:41:22.748Z,7.10
2018-07-08T00:43:51.882Z,9.67
2018-07-08T00:46:20.675Z,7.30
2018-07-08T00:48:49.516Z,6.53
2018-07-08T00:51:18.412Z,6.23
2018-07-08T00:53:47.184Z,8.60
2018-07-08T00:56:15.935Z,9.60
2018-07-08T00:58:44.787Z,8.37
2018-07-08T01:01:13.648Z,6.20
2018-07-08T01:03:42.571Z,7.07
2018-07-08T01:06:11.388Z,8.83
2018-07-08T01:08:40.261Z,6.03
2018-07-08T01:11:09.290Z,7.27
2018-07-08T01:13:38.091Z,12.10
2018-07-08T01:16:07.044Z,7.73
2018-07-08T01:18:35.819Z,11.87
2018-07-08T01:21:04.711Z,6.73
2018-07-08T01:23:33.516Z,5.57
2018-07-08T01:26:11.355Z,7.07
2018-07-08T01:28:41.279Z,7.00
2018-07-08T01:31:11.545Z,5.83
2018-07-08T01:33:40.425Z,9.50
2018-07-08T01:36:09.838Z,6.30
2018-07-08T01:38:38.625Z,5.73
2018-07-08T01:41:07.564Z,8.03
2018-07-08T01:43:36.398Z,9.47
2018-07-08T01:46:05.448Z,10.40
2018-07-08T01:48:34.346Z,7.20
2018-07-08T01:51:03.134Z,7.43
2018-07-08T01:53:32.159Z,9.70
2018-07-08T01:56:00.824Z,7.50
2018-07-08T01:58:29.891Z,7.87
2018-07-08T02:00:58.732Z,8.83
2018-07-08T02:03:27.672Z,8.50
2018-07-08T02:05:56.579Z,11.30
2018-07-08T02:08:25.560Z,8.97
2018-07-08T02:10:54.438Z,11.07
2018-07-08T02:13:23.406Z,8.93
2018-07-08T02:15:52.084Z,6.70
2018-07-08T02:18:21.058Z,10.73
2018-07-08T02:20:49.927Z,7.20
2018-07-08T02:23:18.910Z,9.83
2018-07-08T02:25:47.680Z,10.83
2018-07-08T02:28:16.611Z,16.37
2018-07-08T02:30:45.599Z,7.70
2018-07-08T02:33:14.640Z,8.53
2018-07-08T02:35:43.354Z,7.93
2018-07-08T02:38:12.724Z,8.80
2018-07-08T02:40:41.680Z,8.00
2018-07-08T02:43:10.663Z,8.03
2018-07-08T02:45:45.391Z,6.03
2018-07-08T02:48:14.343Z,9.50
2018-07-08T02:50:43.076Z,9.23
2018-07-08T02:53:11.996Z,6.80
2018-07-08T02:55:40.822Z,9.33
2018-07-08T02:58:09.639Z,8.87
2018-07-08T03:00:38.460Z,9.70
2018-07-08T03:03:07.636Z,7.23
2018-07-08T03:05:36.540Z,8.80
2018-07-08T03:08:05.460Z,8.03
2018-07-08T03:10:34.302Z,9.13
2018-07-08T03:13:03.158Z,10.43
2018-07-08T03:15:31.806Z,8.13
2018-07-08T03:18:00.655Z,10.67
2018-07-08T03:20:29.491Z,9.90
2018-07-08T03:22:58.305Z,9.47
2018-07-08T03:25:27.139Z,8.43
2018-07-08T03:27:55.903Z,7.33
2018-07-08T03:30:24.788Z,7.87
2018-07-08T03:32:53.413Z,8.13
2018-07-08T03:35:22.218Z,11.57
2018-07-08T03:37:51.336Z,10.53
2018-07-08T03:40:20.176Z,8.03
2018-07-08T03:42:49.055Z,12.23
2018-07-08T03:45:23.979Z,8.90
2018-07-08T03:47:52.583Z,7.23
2018-07-08T03:50:21.383Z,9.83
2018-07-08T03:52:50.306Z,10.03
2018-07-08T03:55:19.115Z,7.73
2018-07-08T03:57:47.988Z,11.17
2018-07-08T04:00:17.046Z,4.50
2018-07-08T04:02:45.916Z,6.03
2018-07-08T04:05:14.756Z,8.73
2018-07-08T04:07:43.632Z,11.93
2018-07-08T04:10:12.443Z,6.73
2018-07-08T04:12:41.265Z,7.10
2018-07-08T04:15:10.124Z,8.00
2018-07-08T04:17:39.107Z,7.27
2018-07-08T04:20:08.049Z,11.27
2018-07-08T04:22:36.718Z,8.47
2018-07-08T04:25:05.879Z,10.43
2018-07-08T04:27:34.699Z,8.27
2018-07-08T04:30:03.649Z,10.20
2018-07-08T04:32:32.491Z,6.80
2018-07-08T04:35:01.258Z,10.70
2018-07-08T04:37:30.087Z,9.67
2018-07-08T04:39:58.865Z,11.03
2018-07-08T04:42:27.806Z,5.83
2018-07-08T04:44:56.649Z,11.83
2018-07-08T04:47:25.460Z,10.23
2018-07-08T04:49:54.234Z,7.50
2018-07-08T04:52:23.043Z,5.60
2018-07-08T04:54:51.942Z,9.27
2018-07-08T04:57:20.779Z,12.13
2018-07-08T04:59:49.942Z,11.03
2018-07-08T05:02:18.732Z,12.17
2018-07-08T05:04:47.547Z,7.13
2018-07-08T05:07:16.412Z,7.93
2018-07-08T05:09:45.214Z,9.57
2018-07-08T05:12:13.980Z,7.90
2018-07-08T05:14:42.624Z,10.63
2018-07-08T05:17:11.515Z,6.43
2018-07-08T05:19:40.678Z,8.13
2018-07-08T05:22:09.473Z,9.87
2018-07-08T05:24:38.606Z,10.57
2018-07-08T05:27:07.414Z,7.03
2018-07-08T05:29:36.218Z,9.70
2018-07-08T05:32:05.211Z,6.57
2018-07-08T05:34:33.850Z,4.67
2018-07-08T05:37:02.616Z,6.33
2018-07-08T05:39:35.578Z,5.93
2018-07-08T05:42:04.644Z,9.47
2018-07-08T05:44:33.467Z,8.53
2018-07-08T05:47:02.130Z,8.60
2018-07-08T05:49:31.018Z,7.63
2018-07-08T05:51:59.836Z,6.70
2018-07-08T05:54:28.616Z,9.20
2018-07-08T05:56:57.504Z,8.23
2018-07-08T05:59:26.353Z,6.43
2018-07-08T06:01:55.184Z,6.33
2018-07-08T06:04:23.976Z,4.70
2018-07-08T06:06:52.960Z,9.03
2018-07-08T06:09:21.771Z,9.10
2018-07-08T06:11:50.786Z,6.50
2018-07-08T06:14:19.553Z,6.97
2018-07-08T06:16:48.219Z,5.10
2018-07-08T06:19:17.024Z,8.53
2018-07-08T06:21:45.963Z,9.63
2018-07-08T06:24:14.957Z,7.10
2018-07-08T06:26:43.772Z,5.77
2018-07-08T06:29:12.621Z,7.20
2018-07-08T06:31:41.481Z,8.17
2018-07-08T06:34:10.300Z,5.33
2018-07-08T06:36:39.115Z,5.30
2018-07-08T06:39:07.940Z,11.90
2018-07-08T06:41:36.808Z,4.83
2018-07-08T06:44:05.723Z,5.77
2018-07-08T06:46:34.601Z,4.57
2018-07-08T06:49:03.629Z,4.67
2018-07-08T06:51:32.653Z,5.70
2018-07-08T06:54:01.555Z,4.67
2018-07-08T06:56:30.332Z,8.87
2018-07-08T06:58:59.058Z,6.40
2018-07-08T07:01:28.135Z,4.10
2018-07-08T07:03:56.968Z,7.13
2018-07-08T07:06:25.723Z,7.63
2018-07-08T07:08:54.544Z,8.73
2018-07-08T07:11:23.439Z,4.57
2018-07-08T07:13:52.292Z,5.70
2018-07-08T07:16:21.080Z,6.37
2018-07-08T07:18:49.883Z,6.17
2018-07-08T07:21:18.669Z,6.03
2018-07-08T07:23:48.276Z,5.77
2018-07-08T07:26:17.088Z,5.13
2018-07-08T07:28:46.157Z,7.53
2018-07-08T07:31:14.987Z,5.90
2018-07-08T07:33:43.825Z,4.80
2018-07-08T07:36:12.771Z,5.67
2018-07-08T07:38:41.543Z,6.03
2018-07-08T07:41:10.343Z,5.20
2018-07-08T07:43:39.159Z,4.90
2018-07-08T07:46:07.943Z,5.07
2018-07-08T07:48:36.807Z,4.00
2018-07-08T07:51:05.700Z,5.87
2018-07-08T07:53:40.595Z,5.97
2018-07-08T07:56:09.435Z,3.73
2018-07-08T07:58:38.276Z,5.33
2018-07-08T08:01:07.417Z,5.53
2018-07-08T08:03:36.196Z,3.80
2018-07-08T08:06:05.141Z,4.57
2018-07-08T08:08:34.030Z,7.60
2018-07-08T08:11:02.945Z,4.20
2018-07-08T08:13:31.732Z,6.07
2018-07-08T08:16:00.561Z,5.07
2018-07-08T08:18:29.351Z,7.03
2018-07-08T08:20:58.413Z,3.90
2018-07-08T08:23:27.591Z,5.13
2018-07-08T08:25:56.389Z,7.33
2018-07-08T08:28:25.148Z,7.33
2018-07-08T08:30:53.982Z,4.23
2018-07-08T08:33:23.265Z,5.13
2018-07-08T08:35:52.158Z,6.33
2018-07-08T08:38:20.918Z,2.57
2018-07-08T08:40:49.943Z,3.83
2018-07-08T08:43:18.891Z,4.90
2018-07-08T08:45:48.499Z,6.80
2018-07-08T08:48:17.453Z,4.23
2018-07-08T08:50:46.219Z,4.13
2018-07-08T08:53:15.023Z,4.17
2018-07-08T08:55:43.820Z,5.40
2018-07-08T08:58:12.691Z,6.07
2018-07-08T09:00:41.512Z,5.83
2018-07-08T09:03:10.575Z,9.17
2018-07-08T09:05:39.348Z,4.10
2018-07-08T09:08:08.188Z,5.03
2018-07-08T09:10:36.983Z,6.83
2018-07-08T09:13:06.032Z,2.87
2018-07-08T09:15:34.635Z,4.30
2018-07-08T09:18:03.460Z,10.60
2018-07-08T09:20:32.253Z,4.97
2018-07-08T09:23:01.112Z,4.57
2018-07-08T09:25:29.956Z,6.40
2018-07-08T09:27:58.771Z,7.83
2018-07-08T09:30:27.670Z,4.63
2018-07-08T09:32:56.563Z,2.93
2018-07-08T09:35:25.362Z,4.60
2018-07-08T09:37:54.546Z,6.57
2018-07-08T09:40:23.380Z,3.13
2018-07-08T09:42:52.235Z,4.03
2018-07-08T09:45:27.432Z,6.53
2018-07-08T09:47:56.285Z,3.17
2018-07-08T09:50:25.140Z,3.70
2018-07-08T09:52:53.738Z,4.43
2018-07-08T09:55:22.582Z,1.63
2018-07-08T09:57:51.364Z,2.80
2018-07-08T10:00:20.282Z,2.33
2018-07-08T10:02:49.059Z,5.33
2018-07-08T10:05:17.878Z,3.33
2018-07-08T10:07:46.482Z,2.87
2018-07-08T10:10:15.357Z,3.10
2018-07-08T10:12:44.200Z,4.20
2018-07-08T10:15:13.361Z,3.27
2018-07-08T10:17:42.182Z,4.90
2018-07-08T10:20:11.116Z,6.17
2018-07-08T10:22:39.865Z,3.23
2018-07-08T10:25:08.799Z,5.63
2018-07-08T10:27:53.489Z,2.50
2018-07-08T10:30:22.337Z,3.57
2018-07-08T10:32:51.138Z,1.97
2018-07-08T10:36:03.807Z,4.10
2018-07-08T10:38:32.853Z,4.37
2018-07-08T10:41:01.686Z,1.73
2018-07-08T10:43:30.597Z,3.97
2018-07-08T10:45:59.445Z,3.37
2018-07-08T10:48:28.090Z,1.40
2018-07-08T10:50:56.873Z,3.33
2018-07-08T10:53:25.723Z,2.23
2018-07-08T10:55:54.527Z,3.63
2018-07-08T10:58:23.448Z,1.20
2018-07-08T11:00:52.381Z,2.47
2018-07-08T11:03:21.065Z,3.10
2018-07-08T11:05:49.971Z,4.93
2018-07-08T11:08:18.894Z,2.93
2018-07-08T11:10:47.593Z,2.77
2018-07-08T11:13:16.428Z,3.30
2018-07-08T11:15:45.065Z,1.17
2018-07-08T11:18:13.900Z,1.30
2018-07-08T11:20:42.806Z,1.03
2018-07-08T11:23:11.683Z,1.53
2018-07-08T11:25:40.542Z,1.80
2018-07-08T11:28:09.918Z,3.20
2018-07-08T11:30:38.865Z,3.47
2018-07-08T11:33:08.411Z,3.63
2018-07-08T11:35:37.205Z,2.97
2018-07-08T11:38:06.555Z,1.87
2018-07-08T11:40:35.436Z,2.13
2018-07-08T11:43:04.380Z,2.10
2018-07-08T11:45:39.331Z,4.57
2018-07-08T11:48:08.244Z,1.90
2018-07-08T11:50:37.088Z,3.83
2018-07-08T11:53:05.706Z,2.90
2018-07-08T11:55:34.541Z,5.27
2018-07-08T11:58:03.436Z,3.90
2018-07-08T12:00:32.355Z,1.87
2018-07-08T12:03:01.177Z,4.03
2018-07-08T12:05:30.055Z,2.13
2018-07-08T12:07:58.953Z,3.07
2018-07-08T12:10:27.796Z,2.67
2018-07-08T12:12:56.931Z,2.73
2018-07-08T12:15:25.795Z,4.37
2018-07-08T12:17:54.401Z,2.10
2018-07-08T12:20:23.285Z,1.77
2018-07-08T12:22:52.026Z,5.40
2018-07-08T12:25:21.139Z,1.87
2018-07-08T12:27:49.956Z,3.60
2018-07-08T12:30:18.817Z,4.10
2018-07-08T12:32:47.632Z,4.23
2018-07-08T12:35:16.249Z,3.23
2018-07-08T12:37:45.192Z,2.50
2018-07-08T12:40:13.963Z,4.97
2018-07-08T12:42:42.867Z,1.30
2018-07-08T12:45:17.678Z,2.37
2018-07-08T12:47:46.899Z,4.13
2018-07-08T12:50:15.700Z,1.50
2018-07-08T12:52:44.551Z,2.93
2018-07-08T12:55:13.324Z,2.57
2018-07-08T12:57:42.131Z,3.77
2018-07-08T13:00:11.122Z,1.17
2018-07-08T13:02:40.296Z,5.23
2018-07-08T13:05:09.095Z,2.97
2018-07-08T13:07:37.967Z,1.23
2018-07-08T13:10:06.836Z,1.60
2018-07-08T13:12:35.723Z,4.17
2018-07-08T13:15:04.967Z,2.40
2018-07-08T13:17:33.872Z,4.50
2018-07-08T13:20:02.676Z,1.30
2018-07-08T13:22:31.521Z,7.23
2018-07-08T13:25:00.392Z,1.80
2018-07-08T13:27:29.220Z,2.03
2018-07-08T13:29:58.082Z,1.63
2018-07-08T13:32:26.947Z,4.70
2018-07-08T13:34:55.749Z,2.27
2018-07-08T13:37:24.615Z,2.33
2018-07-08T13:39:53.423Z,2.77
2018-07-08T13:42:22.245Z,1.43
2018-07-08T13:44:50.891Z,2.67
2018-07-08T13:47:19.742Z,6.33
2018-07-08T13:49:48.651Z,3.53
2018-07-08T13:52:17.437Z,2.63
2018-07-08T13:54:46.354Z,1.43
2018-07-08T13:57:15.159Z,3.47
2018-07-08T13:59:44.004Z,3.90
2018-07-08T14:02:12.870Z,1.27
2018-07-08T14:04:42.076Z,2.00
2018-07-08T14:07:11.036Z,1.30
2018-07-08T14:09:39.965Z,4.53
2018-07-08T14:12:08.780Z,1.87
2018-07-08T14:14:37.855Z,1.47
2018-07-08T14:17:06.618Z,2.33
2018-07-08T14:19:35.480Z,4.73
2018-07-08T14:22:04.645Z,2.27
2018-07-08T14:24:33.479Z,2.33
2018-07-08T14:27:02.445Z,3.00
2018-07-08T14:29:31.457Z,1.60
2018-07-08T14:32:00.211Z,1.97
2018-07-08T14:34:29.047Z,1.47
2018-07-08T14:36:57.836Z,1.20
2018-07-08T14:39:26.759Z,2.00
2018-07-08T14:41:55.439Z,2.10
2018-07-08T14:44:24.271Z,1.40
2018-07-08T14:46:53.252Z,1.57
2018-07-08T14:49:22.054Z,4.67
2018-07-08T14:51:50.857Z,1.73
2018-07-08T14:54:19.701Z,1.07
2018-07-08T14:56:48.580Z,0.50
2018-07-08T14:59:17.556Z,2.40
2018-07-08T15:01:46.735Z,4.60
2018-07-08T15:04:15.608Z,1.30
2018-07-08T15:06:44.600Z,1.57
2018-07-08T15:09:13.584Z,0.80
2018-07-08T15:11:42.476Z,5.63
2018-07-08T15:14:11.295Z,1.17
2018-07-08T15:16:40.152Z,0.87
2018-07-08T15:19:08.733Z,2.10
2018-07-08T15:21:37.416Z,1.53
2018-07-08T15:24:06.584Z,3.07
2018-07-08T15:26:35.509Z,2.27
2018-07-08T15:29:04.415Z,1.37
2018-07-08T15:31:33.082Z,1.60
2018-07-08T15:34:01.914Z,1.53
2018-07-08T15:36:30.976Z,2.10
2018-07-08T15:38:59.691Z,1.23
2018-07-08T15:41:28.419Z,2.40
2018-07-08T15:43:57.292Z,2.57
2018-07-08T15:46:26.064Z,4.20
2018-07-08T15:48:55.042Z,1.17
2018-07-08T15:51:23.850Z,2.30
2018-07-08T15:53:52.774Z,0.90
2018-07-08T15:56:21.679Z,0.67
2018-07-08T15:58:50.550Z,1.70
2018-07-08T16:01:19.343Z,1.43
2018-07-08T16:03:48.295Z,1.23
2018-07-08T16:06:17.149Z,2.20
2018-07-08T16:08:46.148Z,3.23
2018-07-08T16:11:14.783Z,0.77
2018-07-08T16:13:43.664Z,1.60
2018-07-08T16:16:12.443Z,2.80
2018-07-08T16:18:41.398Z,3.13
2018-07-08T16:21:10.194Z,2.20
2018-07-08T16:23:39.028Z,3.03
2018-07-08T16:26:07.836Z,1.87
2018-07-08T16:28:36.974Z,2.07
2018-07-08T16:31:05.897Z,2.80
2018-07-08T16:33:34.762Z,2.07
2018-07-08T16:36:03.725Z,2.13
2018-07-08T16:38:32.514Z,1.50
2018-07-08T16:41:01.372Z,2.20
2018-07-08T16:43:30.361Z,1.40
2018-07-08T16:45:59.276Z,1.50
2018-07-08T16:48:28.072Z,3.93
2018-07-08T16:50:56.920Z,2.80
2018-07-08T16:53:25.655Z,1.83
2018-07-08T16:55:54.555Z,1.07
2018-07-08T16:58:23.398Z,5.17
2018-07-08T17:00:52.305Z,2.50
2018-07-08T17:03:21.079Z,1.57
2018-07-08T17:05:50.031Z,1.90
2018-07-08T17:08:18.942Z,2.43
2018-07-08T17:10:47.838Z,3.47
2018-07-08T17:13:16.692Z,4.33
2018-07-08T17:15:45.513Z,3.67
2018-07-08T17:18:14.650Z,2.13
2018-07-08T17:20:43.418Z,2.43
2018-07-08T17:23:12.117Z,1.57
2018-07-08T17:25:40.976Z,2.33
2018-07-08T17:28:09.792Z,2.17
2018-07-08T17:30:39.347Z,6.27
2018-07-08T17:33:08.250Z,2.13
2018-07-08T17:35:37.735Z,3.77
2018-07-08T17:38:06.576Z,1.70
2018-07-08T17:40:35.479Z,1.90
2018-07-08T17:43:04.326Z,2.63
2018-07-08T17:45:39.275Z,1.70
2018-07-08T17:48:08.091Z,2.07
2018-07-08T17:50:36.685Z,2.73
2018-07-08T17:53:05.847Z,2.00
2018-07-08T17:55:34.844Z,2.57
2018-07-08T17:58:03.648Z,1.10
2018-07-08T18:00:32.307Z,3.57
2018-07-08T18:03:01.230Z,4.07
2018-07-08T18:05:29.996Z,3.53
2018-07-08T18:07:58.900Z,2.27
2018-07-08T18:10:27.815Z,2.07
2018-07-08T18:12:56.483Z,1.37
2018-07-08T18:15:25.400Z,3.60
2018-07-08T18:17:54.343Z,2.80
2018-07-08T18:20:23.160Z,2.60
2018-07-08T18:22:52.023Z,1.97
2018-07-08T18:25:20.797Z,2.00
2018-07-08T18:27:49.592Z,1.30
2018-07-08T18:30:18.781Z,1.50
2018-07-08T18:32:47.546Z,2.00
2018-07-08T18:35:16.956Z,1.93
2018-07-08T18:37:45.721Z,2.27
2018-07-08T18:40:15.138Z,2.50
2018-07-08T18:42:44.005Z,2.90
2018-07-08T18:45:19.029Z,3.33
2018-07-08T18:47:47.932Z,2.10
2018-07-08T18:50:16.781Z,4.63
2018-07-08T18:52:45.641Z,2.60
2018-07-08T18:55:17.076Z,2.23
2018-07-08T18:57:45.887Z,3.03
2018-07-08T19:00:14.706Z,2.00
2018-07-08T19:02:43.487Z,4.40
2018-07-08T19:05:13.041Z,4.03
2018-07-08T19:07:41.911Z,4.03
2018-07-08T19:10:10.804Z,3.17
2018-07-08T19:12:40.267Z,2.43
2018-07-08T19:15:09.143Z,3.20
2018-07-08T19:17:38.147Z,3.87
2018-07-08T19:20:07.092Z,3.37
2018-07-08T19:22:35.999Z,4.03
2018-07-08T19:25:04.867Z,5.40
2018-07-08T19:27:33.714Z,5.90
2018-07-08T19:30:02.675Z,4.47
2018-07-08T19:32:31.924Z,7.30
2018-07-08T19:35:01.055Z,4.53
2018-07-08T19:37:30.435Z,3.00
2018-07-08T19:39:59.270Z,3.43
2018-07-08T19:42:28.344Z,5.10
2018-07-08T19:44:57.548Z,3.43
2018-07-08T19:47:26.416Z,5.30
2018-07-08T19:49:55.182Z,3.40
2018-07-08T19:52:24.644Z,2.90
2018-07-08T19:54:53.503Z,2.57
2018-07-08T19:57:22.253Z,3.20
2018-07-08T19:59:51.376Z,3.53
2018-07-08T20:02:20.236Z,4.47
2018-07-08T20:04:48.883Z,3.17
2018-07-08T20:07:17.695Z,3.10
2018-07-08T20:09:46.580Z,5.30
2018-07-08T20:12:15.440Z,3.33
2018-07-08T20:14:44.277Z,6.77
2018-07-08T20:17:12.941Z,6.03
2018-07-08T20:19:41.788Z,3.67
2018-07-08T20:22:10.556Z,3.53
2018-07-08T20:24:39.185Z,7.70
2018-07-08T20:27:07.976Z,4.03
2018-07-08T20:29:36.871Z,6.80
2018-07-08T20:32:05.651Z,3.80
2018-07-08T20:34:34.386Z,9.83
2018-07-08T20:37:03.276Z,4.73
2018-07-08T20:39:32.187Z,3.90
2018-07-08T20:42:01.320Z,4.40
2018-07-08T20:44:30.359Z,4.70
2018-07-08T20:46:59.353Z,5.50
2018-07-08T20:49:28.231Z,6.43
2018-07-08T20:51:57.948Z,5.67
2018-07-08T20:54:26.821Z,4.97
2018-07-08T20:56:55.603Z,4.53
2018-07-08T20:59:24.872Z,5.17
2018-07-08T21:01:53.787Z,3.57
2018-07-08T21:04:23.020Z,4.63
2018-07-08T21:06:51.943Z,5.90
2018-07-08T21:09:20.792Z,6.93
2018-07-08T21:11:49.727Z,4.47
2018-07-08T21:14:18.443Z,4.63
2018-07-08T21:16:47.320Z,4.87
2018-07-08T21:19:16.503Z,5.47
2018-07-08T21:21:45.239Z,9.43
2018-07-08T21:24:14.174Z,6.60
2018-07-08T21:26:43.126Z,5.80
2018-07-08T21:29:12.012Z,8.10
2018-07-08T21:31:40.875Z,6.50
2018-07-08T21:34:09.674Z,7.30
2018-07-08T21:36:38.890Z,8.03
2018-07-08T21:39:09.556Z,5.77
2018-07-08T21:41:39.109Z,8.73
2018-07-08T21:44:08.379Z,5.23
2018-07-08T21:46:37.302Z,7.17
2018-07-08T21:49:06.276Z,5.33
2018-07-08T21:51:34.954Z,5.90
2018-07-08T21:54:03.820Z,6.20
2018-07-08T21:56:32.745Z,5.03
2018-07-08T21:59:01.351Z,7.40
2018-07-08T22:02:09.268Z,5.83
2018-07-08T22:04:38.193Z,4.63
2018-07-08T22:07:12.708Z,5.20
2018-07-08T22:09:41.489Z,7.07
2018-07-08T22:12:10.258Z,8.50
2018-07-08T22:14:39.235Z,8.13
2018-07-08T22:17:08.083Z,9.97
2018-07-08T22:19:37.344Z,8.33
2018-07-08T22:22:06.387Z,7.13
2018-07-08T22:24:35.240Z,7.90
2018-07-08T22:27:04.536Z,10.77
2018-07-08T22:29:34.283Z,6.23
2018-07-08T22:32:03.135Z,7.47
2018-07-08T22:34:31.951Z,6.37
2018-07-08T22:37:00.900Z,5.87
2018-07-08T22:39:29.619Z,8.33
2018-07-08T22:41:58.460Z,6.03
2018-07-08T22:44:27.390Z,7.60
2018-07-08T22:46:56.166Z,8.83
2018-07-08T22:49:25.064Z,10.70
2018-07-08T22:51:54.137Z,7.43
2018-07-08T22:54:22.986Z,9.10
2018-07-08T22:56:51.867Z,5.73
2018-07-08T22:59:21.099Z,5.00
2018-07-08T23:02:06.696Z,5.73
2018-07-08T23:04:35.527Z,7.47
2018-07-08T23:07:04.407Z,6.23
2018-07-08T23:09:33.300Z,7.30
2018-07-08T23:12:02.225Z,6.70
2018-07-08T23:14:31.079Z,6.23
2018-07-08T23:16:59.752Z,6.87
2018-07-08T23:19:28.572Z,7.57
2018-07-08T23:21:57.733Z,6.70
2018-07-08T23:24:26.712Z,6.37
2018-07-08T23:26:55.616Z,7.00
2018-07-08T23:29:24.597Z,11.00
2018-07-08T23:31:53.543Z,7.37
2018-07-08T23:34:22.416Z,8.30
2018-07-08T23:36:51.377Z,6.70
2018-07-08T23:39:20.233Z,7.60
2018-07-08T23:41:49.102Z,6.93
2018-07-08T23:44:18.092Z,7.17
2018-07-08T23:46:46.997Z,9.00
2018-07-08T23:49:15.836Z,8.83
2018-07-08T23:51:44.683Z,9.20
2018-07-08T23:54:13.535Z,9.57
2018-07-08T23:56:42.467Z,7.80
2018-07-08T23:59:11.257Z,10.43
